createdAt,value
2023-03-27T00:00:00.621Z,264.00
2023-03-27T00:00:14.639Z,263.00
2023-03-27T00:00:42.612Z,262.00
2023-03-27T00:00:56.772Z,261.00
2023-03-27T00:01:10.861Z,261.00
2023-03-27T00:01:24.838Z,261.00
2023-03-27T00:01:52.842Z,260.00
2023-03-27T00:02:06.911Z,259.00
2023-03-27T00:02:21.050Z,259.00
2023-03-27T00:02:35.195Z,260.00
2023-03-27T00:03:03.376Z,260.00
2023-03-27T00:03:17.556Z,260.00
2023-03-27T00:03:31.719Z,261.00
2023-03-27T00:03:45.792Z,262.00
2023-03-27T00:04:17.929Z,262.00
2023-03-27T00:04:27.574Z,262.00
2023-03-27T00:04:41.583Z,262.00
2023-03-27T00:04:55.591Z,262.00
2023-03-27T00:05:23.536Z,262.00
2023-03-27T00:05:37.534Z,262.00
2023-03-27T00:05:51.524Z,263.00
2023-03-27T00:06:05.511Z,262.00
2023-03-27T00:06:33.473Z,260.00
2023-03-27T00:06:47.458Z,261.00
2023-03-27T00:07:01.437Z,261.00
2023-03-27T00:07:15.437Z,261.00
2023-03-27T00:07:43.390Z,261.00
2023-03-27T00:07:57.368Z,261.00
2023-03-27T00:08:11.360Z,260.00
2023-03-27T00:08:25.355Z,260.00
2023-03-27T00:08:53.362Z,260.00
2023-03-27T00:09:07.389Z,260.00
2023-03-27T00:09:21.373Z,259.00
2023-03-27T00:09:35.369Z,260.00
2023-03-27T00:10:03.327Z,260.00
2023-03-27T00:10:17.321Z,259.00
2023-03-27T00:10:31.307Z,259.00
2023-03-27T00:10:45.291Z,259.00
2023-03-27T00:11:13.254Z,259.00
2023-03-27T00:11:27.250Z,259.00
2023-03-27T00:11:41.245Z,259.00
2023-03-27T00:11:55.224Z,258.00
2023-03-27T00:12:23.242Z,259.00
2023-03-27T00:12:37.222Z,260.00
2023-03-27T00:12:51.212Z,260.00
2023-03-27T00:13:05.208Z,260.00
2023-03-27T00:13:33.169Z,261.00
2023-03-27T00:13:49.892Z,260.00
2023-03-27T00:14:02.108Z,260.00
2023-03-27T00:14:16.105Z,260.00
2023-03-27T00:14:44.072Z,261.00
2023-03-27T00:14:58.088Z,261.00
2023-03-27T00:15:12.076Z,261.00
2023-03-27T00:15:26.075Z,261.00
2023-03-27T00:15:54.020Z,261.00
2023-03-27T00:16:08.030Z,261.00
2023-03-27T00:16:22.132Z,261.00
2023-03-27T00:16:36.204Z,261.00
2023-03-27T00:17:04.205Z,261.00
2023-03-27T00:17:18.234Z,262.00
2023-03-27T00:17:32.221Z,261.00
2023-03-27T00:17:46.260Z,261.00
2023-03-27T00:18:14.259Z,260.00
2023-03-27T00:18:28.286Z,260.00
2023-03-27T00:18:42.299Z,260.00
2023-03-27T00:18:56.280Z,260.00
2023-03-27T00:19:24.232Z,261.00
2023-03-27T00:19:38.223Z,261.00
2023-03-27T00:19:52.213Z,261.00
2023-03-27T00:20:06.212Z,260.00
2023-03-27T00:20:34.160Z,260.00
2023-03-27T00:20:48.146Z,260.00
2023-03-27T00:21:02.152Z,260.00
2023-03-27T00:21:16.179Z,260.00
2023-03-27T00:21:44.154Z,259.00
2023-03-27T00:21:58.153Z,259.00
2023-03-27T00:22:12.141Z,259.00
2023-03-27T00:22:26.148Z,259.00
2023-03-27T00:22:54.138Z,258.00
2023-03-27T00:23:08.124Z,258.00
2023-03-27T00:23:22.125Z,259.00
2023-03-27T00:23:36.108Z,259.00
2023-03-27T00:24:04.096Z,257.00
2023-03-27T00:24:18.087Z,257.00
2023-03-27T00:24:32.073Z,257.00
2023-03-27T00:24:46.066Z,258.00
2023-03-27T00:25:14.043Z,259.00
2023-03-27T00:25:28.032Z,260.00
2023-03-27T00:25:42.024Z,260.00
2023-03-27T00:25:56.010Z,259.00
2023-03-27T00:26:23.979Z,258.00
2023-03-27T00:26:37.973Z,258.00
2023-03-27T00:26:51.957Z,257.00
2023-03-27T00:27:05.945Z,258.00
2023-03-27T00:27:33.899Z,258.00
2023-03-27T00:27:47.883Z,257.00
2023-03-27T00:28:01.878Z,258.00
2023-03-27T00:28:15.862Z,258.00
2023-03-27T00:28:43.847Z,257.00
2023-03-27T00:28:57.879Z,257.00
2023-03-27T00:29:11.864Z,258.00
2023-03-27T00:29:25.871Z,258.00
2023-03-27T00:29:53.811Z,257.00
2023-03-27T00:30:07.796Z,257.00
2023-03-27T00:30:21.798Z,257.00
2023-03-27T00:30:35.805Z,258.00
2023-03-27T00:31:03.808Z,258.00
2023-03-27T00:31:17.923Z,257.00
2023-03-27T00:31:32.014Z,256.00
2023-03-27T00:31:46.050Z,259.00
2023-03-27T00:32:14.007Z,261.00
2023-03-27T00:32:28.018Z,261.00
2023-03-27T00:32:42.114Z,261.00
2023-03-27T00:32:56.290Z,260.00
2023-03-27T00:33:24.338Z,259.00
2023-03-27T00:33:38.331Z,258.00
2023-03-27T00:33:52.305Z,258.00
2023-03-27T00:34:06.302Z,256.00
2023-03-27T00:34:34.286Z,255.00
2023-03-27T00:34:48.275Z,255.00
2023-03-27T00:35:02.270Z,256.00
2023-03-27T00:35:16.272Z,255.00
2023-03-27T00:35:44.277Z,254.00
2023-03-27T00:35:58.360Z,254.00
2023-03-27T00:36:12.380Z,255.00
2023-03-27T00:36:26.377Z,255.00
2023-03-27T00:36:54.375Z,255.00
2023-03-27T00:37:08.358Z,255.00
2023-03-27T00:37:22.353Z,254.00
2023-03-27T00:37:36.345Z,253.00
2023-03-27T00:38:04.294Z,254.00
2023-03-27T00:38:18.286Z,253.00
2023-03-27T00:38:32.271Z,254.00
2023-03-27T00:38:46.269Z,253.00
2023-03-27T00:39:14.253Z,252.00
2023-03-27T00:39:28.233Z,253.00
2023-03-27T00:39:43.186Z,253.00
2023-03-27T00:39:57.178Z,253.00
2023-03-27T00:40:11.218Z,254.00
2023-03-27T00:40:25.225Z,254.00
2023-03-27T00:40:39.266Z,254.00
2023-03-27T00:40:53.443Z,254.00
2023-03-27T00:41:07.569Z,254.00
2023-03-27T00:41:35.584Z,255.00
2023-03-27T00:41:49.598Z,255.00
2023-03-27T00:42:03.589Z,255.00
2023-03-27T00:42:17.579Z,255.00
2023-03-27T00:42:45.539Z,255.00
2023-03-27T00:42:59.579Z,255.00
2023-03-27T00:43:13.569Z,255.00
2023-03-27T00:43:27.565Z,256.00
2023-03-27T00:43:55.566Z,255.00
2023-03-27T00:44:09.562Z,256.00
2023-03-27T00:44:23.554Z,257.00
2023-03-27T00:44:39.667Z,257.00
2023-03-27T00:45:05.237Z,258.00
2023-03-27T00:45:19.229Z,259.00
2023-03-27T00:45:33.250Z,259.00
2023-03-27T00:45:47.262Z,259.00
2023-03-27T00:46:15.302Z,259.00
2023-03-27T00:46:29.452Z,258.00
2023-03-27T00:46:43.606Z,258.00
2023-03-27T00:46:57.670Z,259.00
2023-03-27T00:47:25.685Z,258.00
2023-03-27T00:47:39.728Z,258.00
2023-03-27T00:47:53.813Z,257.00
2023-03-27T00:48:07.876Z,258.00
2023-03-27T00:48:35.928Z,257.00
2023-03-27T00:48:49.917Z,257.00
2023-03-27T00:49:03.923Z,257.00
2023-03-27T00:49:17.903Z,256.00
2023-03-27T00:49:45.863Z,257.00
2023-03-27T00:49:59.848Z,258.00
2023-03-27T00:50:13.836Z,258.00
2023-03-27T00:50:27.819Z,258.00
2023-03-27T00:50:55.941Z,257.00
2023-03-27T00:51:10.040Z,257.00
2023-03-27T00:51:24.039Z,257.00
2023-03-27T00:51:38.028Z,257.00
2023-03-27T00:52:05.971Z,258.00
2023-03-27T00:52:19.970Z,258.00
2023-03-27T00:52:33.955Z,258.00
2023-03-27T00:52:47.964Z,258.00
2023-03-27T00:53:15.936Z,259.00
2023-03-27T00:53:29.941Z,259.00
2023-03-27T00:53:43.939Z,259.00
2023-03-27T00:53:57.950Z,259.00
2023-03-27T00:54:25.920Z,260.00
2023-03-27T00:54:39.923Z,261.00
2023-03-27T00:54:53.925Z,261.00
2023-03-27T00:55:07.951Z,261.00
2023-03-27T00:55:35.958Z,261.00
2023-03-27T00:55:49.940Z,261.00
2023-03-27T00:56:03.940Z,261.00
2023-03-27T00:56:17.998Z,261.00
2023-03-27T00:56:46.057Z,260.00
2023-03-27T00:57:00.092Z,260.00
2023-03-27T00:57:14.148Z,261.00
2023-03-27T00:57:28.176Z,261.00
2023-03-27T00:57:42.161Z,261.00
2023-03-27T00:57:56.159Z,260.00
2023-03-27T00:58:10.150Z,259.00
2023-03-27T00:58:24.218Z,259.00
2023-03-27T00:58:38.212Z,259.00
2023-03-27T00:59:06.159Z,258.00
2023-03-27T00:59:20.163Z,259.00
2023-03-27T00:59:34.148Z,259.00
2023-03-27T00:59:48.142Z,259.00
2023-03-27T01:00:16.107Z,257.00
2023-03-27T01:00:30.091Z,258.00
2023-03-27T01:00:44.107Z,257.00
2023-03-27T01:00:58.361Z,257.00
2023-03-27T01:01:26.467Z,256.00
2023-03-27T01:01:40.554Z,256.00
2023-03-27T01:01:54.691Z,256.00
2023-03-27T01:02:08.706Z,256.00
2023-03-27T01:02:36.723Z,257.00
2023-03-27T01:02:50.831Z,257.00
2023-03-27T01:03:04.933Z,257.00
2023-03-27T01:03:19.139Z,257.00
2023-03-27T01:03:47.418Z,258.00
2023-03-27T01:04:01.481Z,258.00
2023-03-27T01:04:15.467Z,258.00
2023-03-27T01:04:29.451Z,258.00
2023-03-27T01:04:58.402Z,257.00
2023-03-27T01:05:12.390Z,257.00
2023-03-27T01:05:26.382Z,258.00
2023-03-27T01:05:40.368Z,258.00
2023-03-27T01:05:54.385Z,258.00
2023-03-27T01:06:08.391Z,257.00
2023-03-27T01:06:22.396Z,257.00
2023-03-27T01:06:36.399Z,258.00
2023-03-27T01:06:50.440Z,257.00
2023-03-27T01:07:18.404Z,258.00
2023-03-27T01:07:32.399Z,257.00
2023-03-27T01:08:00.233Z,257.00
2023-03-27T01:08:01.800Z,257.00
2023-03-27T01:08:27.446Z,257.00
2023-03-27T01:08:41.435Z,257.00
2023-03-27T01:08:55.423Z,256.00
2023-03-27T01:09:09.418Z,256.00
2023-03-27T01:09:37.373Z,256.00
2023-03-27T01:09:51.368Z,257.00
2023-03-27T01:10:05.355Z,257.00
2023-03-27T01:10:19.352Z,257.00
2023-03-27T01:10:33.334Z,257.00
2023-03-27T01:10:47.324Z,257.00
2023-03-27T01:11:01.305Z,257.00
2023-03-27T01:11:15.318Z,257.00
2023-03-27T01:11:29.326Z,258.00
2023-03-27T01:11:57.318Z,257.00
2023-03-27T01:12:11.356Z,258.00
2023-03-27T01:12:25.349Z,258.00
2023-03-27T01:12:39.351Z,257.00
2023-03-27T01:13:07.317Z,258.00
2023-03-27T01:13:21.308Z,258.00
2023-03-27T01:13:35.292Z,258.00
2023-03-27T01:13:49.272Z,258.00
2023-03-27T01:14:17.237Z,258.00
2023-03-27T01:14:31.256Z,259.00
2023-03-27T01:14:45.233Z,259.00
2023-03-27T01:14:59.238Z,259.00
2023-03-27T01:15:27.215Z,260.00
2023-03-27T01:15:41.234Z,259.00
2023-03-27T01:15:55.289Z,259.00
2023-03-27T01:16:09.336Z,258.00
2023-03-27T01:16:37.315Z,258.00
2023-03-27T01:16:51.303Z,258.00
2023-03-27T01:17:05.294Z,257.00
2023-03-27T01:17:19.298Z,256.00
2023-03-27T01:17:47.288Z,256.00
2023-03-27T01:18:01.360Z,255.00
2023-03-27T01:18:15.397Z,255.00
2023-03-27T01:18:29.385Z,256.00
2023-03-27T01:18:57.366Z,255.00
2023-03-27T01:19:11.363Z,254.00
2023-03-27T01:19:25.342Z,253.00
2023-03-27T01:19:39.386Z,253.00
2023-03-27T01:20:07.336Z,253.00
2023-03-27T01:20:21.305Z,254.00
2023-03-27T01:20:35.291Z,254.00
2023-03-27T01:20:49.279Z,254.00
2023-03-27T01:21:17.274Z,254.00
2023-03-27T01:21:31.281Z,253.00
2023-03-27T01:21:45.269Z,254.00
2023-03-27T01:21:59.261Z,254.00
2023-03-27T01:22:27.228Z,253.00
2023-03-27T01:22:41.218Z,253.00
2023-03-27T01:22:55.216Z,253.00
2023-03-27T01:23:09.196Z,253.00
2023-03-27T01:23:58.572Z,253.00
2023-03-27T01:23:59.385Z,252.00
2023-03-27T01:23:59.843Z,252.00
2023-03-27T01:24:04.583Z,252.00
2023-03-27T01:24:18.575Z,251.00
2023-03-27T01:24:46.575Z,251.00
2023-03-27T01:25:00.565Z,251.00
2023-03-27T01:25:14.558Z,250.00
2023-03-27T01:25:29.437Z,251.00
2023-03-27T01:25:57.420Z,251.00
2023-03-27T01:26:11.407Z,251.00
2023-03-27T01:26:35.957Z,251.00
2023-03-27T01:26:39.177Z,252.00
2023-03-27T01:27:07.149Z,253.00
2023-03-27T01:27:21.131Z,254.00
2023-03-27T01:27:35.136Z,255.00
2023-03-27T01:27:48.523Z,255.00
2023-03-27T01:28:16.495Z,255.00
2023-03-27T01:28:30.509Z,255.00
2023-03-27T01:28:44.493Z,256.00
2023-03-27T01:28:58.482Z,255.00
2023-03-27T01:29:26.445Z,256.00
2023-03-27T01:29:40.431Z,257.00
2023-03-27T01:29:54.425Z,258.00
2023-03-27T01:30:08.414Z,258.00
2023-03-27T01:30:36.386Z,258.00
2023-03-27T01:30:50.400Z,259.00
2023-03-27T01:31:04.399Z,258.00
2023-03-27T01:31:18.458Z,258.00
2023-03-27T01:31:46.482Z,258.00
2023-03-27T01:32:00.520Z,259.00
2023-03-27T01:32:14.517Z,259.00
2023-03-27T01:32:28.548Z,258.00
2023-03-27T01:32:56.559Z,259.00
2023-03-27T01:33:10.664Z,257.00
2023-03-27T01:33:24.680Z,257.00
2023-03-27T01:33:38.679Z,258.00
2023-03-27T01:34:06.666Z,259.00
2023-03-27T01:34:20.659Z,259.00
2023-03-27T01:34:34.663Z,260.00
2023-03-27T01:34:48.649Z,260.00
2023-03-27T01:35:16.409Z,259.00
2023-03-27T01:35:30.459Z,259.00
2023-03-27T01:35:44.491Z,259.00
2023-03-27T01:35:58.533Z,259.00
2023-03-27T01:36:26.515Z,259.00
2023-03-27T01:36:40.496Z,259.00
2023-03-27T01:36:54.496Z,259.00
2023-03-27T01:37:08.502Z,259.00
2023-03-27T01:37:36.483Z,258.00
2023-03-27T01:37:50.473Z,259.00
2023-03-27T01:38:04.468Z,258.00
2023-03-27T01:38:18.469Z,259.00
2023-03-27T01:38:46.417Z,259.00
2023-03-27T01:39:00.402Z,258.00
2023-03-27T01:39:14.427Z,258.00
2023-03-27T01:39:28.406Z,258.00
2023-03-27T01:39:56.398Z,258.00
2023-03-27T01:40:10.401Z,258.00
2023-03-27T01:40:24.409Z,257.00
2023-03-27T01:40:38.429Z,258.00
2023-03-27T01:41:06.396Z,258.00
2023-03-27T01:41:20.379Z,259.00
2023-03-27T01:41:34.375Z,259.00
2023-03-27T01:41:48.359Z,259.00
2023-03-27T01:42:16.317Z,258.00
2023-03-27T01:42:30.309Z,258.00
2023-03-27T01:42:44.289Z,258.00
2023-03-27T01:42:58.289Z,258.00
2023-03-27T01:43:26.254Z,259.00
2023-03-27T01:43:40.243Z,259.00
2023-03-27T01:43:54.234Z,259.00
2023-03-27T01:44:08.212Z,258.00
2023-03-27T01:44:36.326Z,258.00
2023-03-27T01:44:49.964Z,258.00
2023-03-27T01:45:03.952Z,258.00
2023-03-27T01:45:17.944Z,258.00
2023-03-27T01:45:45.891Z,258.00
2023-03-27T01:45:59.874Z,258.00
2023-03-27T01:46:13.920Z,259.00
2023-03-27T01:46:27.942Z,259.00
2023-03-27T01:46:56.003Z,258.00
2023-03-27T01:47:10.044Z,258.00
2023-03-27T01:47:24.076Z,258.00
2023-03-27T01:47:38.100Z,259.00
2023-03-27T01:48:06.128Z,258.00
2023-03-27T01:48:20.188Z,258.00
2023-03-27T01:48:34.208Z,259.00
2023-03-27T01:48:48.198Z,258.00
2023-03-27T01:49:16.238Z,258.00
2023-03-27T01:49:30.256Z,257.00
2023-03-27T01:49:44.235Z,257.00
2023-03-27T01:49:58.232Z,257.00
2023-03-27T01:50:26.203Z,256.00
2023-03-27T01:50:40.186Z,257.00
2023-03-27T01:50:54.483Z,256.00
2023-03-27T01:51:08.881Z,256.00
2023-03-27T01:51:36.857Z,257.00
2023-03-27T01:51:50.855Z,256.00
2023-03-27T01:52:04.871Z,256.00
2023-03-27T01:52:18.864Z,257.00
2023-03-27T01:52:46.810Z,257.00
2023-03-27T01:53:00.810Z,258.00
2023-03-27T01:53:14.794Z,258.00
2023-03-27T01:53:28.842Z,259.00
2023-03-27T01:53:56.841Z,260.00
2023-03-27T01:54:10.825Z,260.00
2023-03-27T01:54:24.840Z,259.00
2023-03-27T01:54:38.832Z,260.00
2023-03-27T01:55:06.791Z,259.00
2023-03-27T01:55:20.789Z,258.00
2023-03-27T01:55:34.781Z,258.00
2023-03-27T01:55:48.799Z,257.00
2023-03-27T01:56:16.772Z,257.00
2023-03-27T01:56:30.760Z,256.00
2023-03-27T01:56:44.835Z,256.00
2023-03-27T01:56:58.866Z,256.00
2023-03-27T01:57:26.842Z,255.00
2023-03-27T01:57:49.435Z,255.00
2023-03-27T01:57:54.633Z,254.00
2023-03-27T01:58:08.619Z,254.00
2023-03-27T01:58:22.598Z,254.00
2023-03-27T01:58:36.608Z,254.00
2023-03-27T01:58:50.598Z,255.00
2023-03-27T01:59:04.605Z,255.00
2023-03-27T01:59:18.587Z,254.00
2023-03-27T01:59:46.548Z,255.00
2023-03-27T02:00:18.206Z,256.00
2023-03-27T02:00:18.313Z,256.00
2023-03-27T02:00:27.961Z,256.00
2023-03-27T02:00:55.699Z,256.00
2023-03-27T02:01:10.203Z,256.00
2023-03-27T02:01:24.548Z,256.00
2023-03-27T02:01:38.651Z,256.00
2023-03-27T02:02:06.632Z,257.00
2023-03-27T02:02:20.629Z,258.00
2023-03-27T02:02:34.628Z,257.00
2023-03-27T02:02:48.684Z,258.00
2023-03-27T02:03:16.649Z,258.00
2023-03-27T02:03:30.653Z,258.00
2023-03-27T02:03:44.672Z,257.00
2023-03-27T02:03:58.666Z,257.00
2023-03-27T02:04:26.746Z,257.00
2023-03-27T02:04:40.768Z,258.00
2023-03-27T02:04:54.893Z,258.00
2023-03-27T02:05:08.959Z,258.00
2023-03-27T02:05:36.965Z,257.00
2023-03-27T02:05:50.949Z,257.00
2023-03-27T02:06:04.943Z,258.00
2023-03-27T02:06:18.944Z,258.00
2023-03-27T02:06:46.886Z,257.00
2023-03-27T02:07:00.887Z,257.00
2023-03-27T02:07:14.869Z,257.00
2023-03-27T02:07:28.869Z,257.00
2023-03-27T02:07:56.837Z,256.00
2023-03-27T02:08:10.824Z,256.00
2023-03-27T02:08:24.835Z,255.00
2023-03-27T02:08:38.823Z,255.00
2023-03-27T02:09:06.803Z,255.00
2023-03-27T02:09:20.801Z,254.00
2023-03-27T02:09:34.791Z,255.00
2023-03-27T02:09:48.781Z,255.00
2023-03-27T02:10:16.766Z,255.00
2023-03-27T02:10:30.773Z,255.00
2023-03-27T02:10:44.781Z,255.00
2023-03-27T02:10:59.057Z,256.00
2023-03-27T02:11:13.239Z,255.00
2023-03-27T02:11:27.227Z,255.00
2023-03-27T02:11:41.211Z,255.00
2023-03-27T02:11:55.224Z,256.00
2023-03-27T02:12:09.202Z,255.00
2023-03-27T02:12:37.161Z,254.00
2023-03-27T02:12:51.156Z,253.00
2023-03-27T02:13:05.135Z,253.00
2023-03-27T02:13:19.129Z,254.00
2023-03-27T02:13:47.130Z,253.00
2023-03-27T02:14:01.133Z,252.00
2023-03-27T02:14:15.128Z,252.00
2023-03-27T02:14:29.119Z,252.00
2023-03-27T02:14:57.099Z,252.00
2023-03-27T02:15:25.496Z,251.00
2023-03-27T02:15:27.381Z,252.00
2023-03-27T02:15:39.604Z,250.00
2023-03-27T02:16:07.571Z,250.00
2023-03-27T02:16:21.604Z,251.00
2023-03-27T02:16:35.728Z,251.00
2023-03-27T02:16:49.748Z,251.00
2023-03-27T02:17:17.704Z,251.00
2023-03-27T02:17:31.746Z,251.00
2023-03-27T02:17:45.843Z,251.00
2023-03-27T02:17:59.869Z,251.00
2023-03-27T02:18:27.871Z,252.00
2023-03-27T02:18:41.881Z,252.00
2023-03-27T02:18:55.867Z,252.00
2023-03-27T02:19:09.860Z,252.00
2023-03-27T02:19:37.860Z,253.00
2023-03-27T02:19:51.854Z,253.00
2023-03-27T02:20:05.846Z,253.00
2023-03-27T02:20:19.847Z,252.00
2023-03-27T02:20:47.812Z,253.00
2023-03-27T02:21:01.808Z,253.00
2023-03-27T02:21:15.807Z,252.00
2023-03-27T02:21:29.789Z,252.00
2023-03-27T02:21:57.752Z,251.00
2023-03-27T02:22:11.750Z,250.00
2023-03-27T02:22:38.285Z,250.00
2023-03-27T02:22:39.524Z,251.00
2023-03-27T02:23:07.494Z,251.00
2023-03-27T02:23:21.487Z,252.00
2023-03-27T02:23:35.481Z,253.00
2023-03-27T02:23:49.487Z,253.00
2023-03-27T02:24:17.505Z,253.00
2023-03-27T02:24:31.520Z,253.00
2023-03-27T02:24:45.506Z,253.00
2023-03-27T02:24:59.523Z,254.00
2023-03-27T02:25:27.508Z,253.00
2023-03-27T02:25:41.497Z,254.00
2023-03-27T02:25:55.510Z,254.00
2023-03-27T02:26:09.496Z,255.00
2023-03-27T02:26:37.548Z,255.00
2023-03-27T02:26:51.542Z,255.00
2023-03-27T02:27:05.537Z,256.00
2023-03-27T02:27:19.526Z,256.00
2023-03-27T02:27:47.497Z,257.00
2023-03-27T02:28:01.483Z,256.00
2023-03-27T02:28:15.494Z,256.00
2023-03-27T02:28:29.475Z,256.00
2023-03-27T02:28:57.423Z,256.00
2023-03-27T02:29:11.444Z,256.00
2023-03-27T02:29:25.433Z,257.00
2023-03-27T02:29:39.421Z,258.00
2023-03-27T02:30:07.373Z,259.00
2023-03-27T02:30:21.354Z,259.00
2023-03-27T02:30:35.352Z,259.00
2023-03-27T02:31:30.860Z,258.00
2023-03-27T02:31:32.584Z,257.00
2023-03-27T02:31:33.180Z,257.00
2023-03-27T02:31:45.736Z,257.00
2023-03-27T02:31:59.836Z,257.00
2023-03-27T02:32:28.008Z,256.00
2023-03-27T02:32:42.259Z,256.00
2023-03-27T02:32:56.390Z,256.00
2023-03-27T02:33:10.414Z,256.00
2023-03-27T02:33:38.379Z,257.00
2023-03-27T02:33:52.375Z,256.00
2023-03-27T02:34:06.375Z,257.00
2023-03-27T02:34:20.386Z,257.00
2023-03-27T02:34:48.506Z,256.00
2023-03-27T02:35:02.500Z,256.00
2023-03-27T02:35:16.495Z,256.00
2023-03-27T02:35:30.503Z,256.00
2023-03-27T02:35:58.518Z,255.00
2023-03-27T02:36:12.534Z,255.00
2023-03-27T02:36:26.657Z,254.00
2023-03-27T02:36:40.665Z,254.00
2023-03-27T02:37:08.618Z,254.00
2023-03-27T02:37:22.611Z,254.00
2023-03-27T02:37:36.408Z,254.00
2023-03-27T02:37:50.415Z,252.00
2023-03-27T02:38:18.374Z,252.00
2023-03-27T02:38:32.358Z,252.00
2023-03-27T02:38:46.358Z,252.00
2023-03-27T02:39:00.346Z,252.00
2023-03-27T02:39:28.329Z,250.00
2023-03-27T02:39:42.326Z,249.00
2023-03-27T02:39:56.306Z,250.00
2023-03-27T02:40:10.298Z,251.00
2023-03-27T02:40:40.238Z,249.00
2023-03-27T02:40:51.858Z,249.00
2023-03-27T02:41:05.840Z,249.00
2023-03-27T02:41:19.845Z,250.00
2023-03-27T02:41:33.819Z,250.00
2023-03-27T02:41:47.833Z,250.00
2023-03-27T02:42:01.809Z,249.00
2023-03-27T02:42:15.795Z,250.00
2023-03-27T02:42:29.814Z,250.00
2023-03-27T02:42:57.782Z,250.00
2023-03-27T02:43:11.776Z,251.00
2023-03-27T02:43:25.747Z,252.00
2023-03-27T02:43:39.734Z,252.00
2023-03-27T02:44:07.699Z,252.00
2023-03-27T02:44:21.693Z,252.00
2023-03-27T02:44:35.691Z,252.00
2023-03-27T02:44:49.465Z,252.00
2023-03-27T02:45:17.423Z,252.00
2023-03-27T02:45:31.444Z,252.00
2023-03-27T02:45:45.503Z,251.00
2023-03-27T02:45:59.582Z,251.00
2023-03-27T02:46:27.590Z,252.00
2023-03-27T02:46:41.582Z,251.00
2023-03-27T02:46:55.574Z,251.00
2023-03-27T02:47:09.551Z,251.00
2023-03-27T02:47:37.563Z,251.00
2023-03-27T02:47:51.628Z,250.00
2023-03-27T02:48:05.659Z,250.00
2023-03-27T02:48:19.669Z,250.00
2023-03-27T02:48:47.663Z,250.00
2023-03-27T02:49:01.672Z,250.00
2023-03-27T02:49:15.666Z,250.00
2023-03-27T02:49:29.697Z,250.00
2023-03-27T02:49:57.683Z,252.00
2023-03-27T02:50:11.681Z,252.00
2023-03-27T02:50:25.681Z,252.00
2023-03-27T02:50:39.675Z,252.00
2023-03-27T02:51:07.712Z,252.00
2023-03-27T02:51:21.701Z,252.00
2023-03-27T02:51:35.689Z,252.00
2023-03-27T02:51:49.681Z,252.00
2023-03-27T02:52:17.683Z,252.00
2023-03-27T02:52:31.708Z,252.00
2023-03-27T02:52:45.697Z,252.00
2023-03-27T02:52:59.691Z,252.00
2023-03-27T02:53:27.658Z,252.00
2023-03-27T02:53:41.649Z,252.00
2023-03-27T02:53:55.637Z,251.00
2023-03-27T02:54:09.630Z,251.00
2023-03-27T02:54:23.635Z,253.00
2023-03-27T02:54:37.620Z,254.00
2023-03-27T02:54:51.624Z,253.00
2023-03-27T02:55:05.614Z,253.00
2023-03-27T02:55:19.609Z,253.00
2023-03-27T02:55:47.583Z,254.00
2023-03-27T02:56:01.697Z,254.00
2023-03-27T02:56:15.758Z,254.00
2023-03-27T02:56:29.752Z,254.00
2023-03-27T02:56:57.837Z,254.00
2023-03-27T02:57:11.937Z,254.00
2023-03-27T02:57:25.949Z,254.00
2023-03-27T02:57:39.950Z,254.00
2023-03-27T02:58:07.943Z,254.00
2023-03-27T02:58:21.936Z,254.00
2023-03-27T02:58:36.420Z,254.00
2023-03-27T02:58:50.458Z,255.00
2023-03-27T02:59:18.409Z,255.00
2023-03-27T02:59:32.393Z,255.00
2023-03-27T02:59:46.418Z,255.00
2023-03-27T03:00:00.398Z,255.00
2023-03-27T03:00:28.362Z,255.00
2023-03-27T03:00:42.361Z,256.00
2023-03-27T03:00:56.606Z,255.00
2023-03-27T03:01:10.876Z,256.00
2023-03-27T03:01:38.976Z,257.00
2023-03-27T03:01:53.020Z,257.00
2023-03-27T03:02:07.050Z,258.00
2023-03-27T03:02:21.163Z,258.00
2023-03-27T03:02:49.368Z,258.00
2023-03-27T03:03:03.494Z,258.00
2023-03-27T03:03:17.835Z,258.00
2023-03-27T03:03:32.177Z,257.00
2023-03-27T03:04:00.203Z,256.00
2023-03-27T03:04:14.212Z,257.00
2023-03-27T03:04:28.198Z,257.00
2023-03-27T03:04:42.187Z,258.00
2023-03-27T03:05:10.190Z,258.00
2023-03-27T03:05:24.192Z,258.00
2023-03-27T03:05:38.965Z,257.00
2023-03-27T03:05:52.962Z,256.00
2023-03-27T03:06:20.934Z,257.00
2023-03-27T03:06:34.925Z,257.00
2023-03-27T03:06:48.917Z,258.00
2023-03-27T03:07:02.893Z,257.00
2023-03-27T03:07:30.867Z,257.00
2023-03-27T03:07:44.863Z,257.00
2023-03-27T03:07:58.865Z,258.00
2023-03-27T03:08:12.854Z,258.00
2023-03-27T03:08:40.816Z,257.00
2023-03-27T03:08:54.817Z,256.00
2023-03-27T03:09:08.816Z,257.00
2023-03-27T03:09:22.817Z,256.00
2023-03-27T03:09:50.779Z,257.00
2023-03-27T03:10:04.791Z,256.00
2023-03-27T03:10:18.781Z,256.00
2023-03-27T03:10:32.770Z,255.00
2023-03-27T03:11:00.731Z,254.00
2023-03-27T03:11:14.724Z,253.00
2023-03-27T03:11:28.724Z,253.00
2023-03-27T03:11:42.711Z,255.00
2023-03-27T03:12:10.702Z,255.00
2023-03-27T03:12:24.715Z,255.00
2023-03-27T03:12:38.739Z,255.00
2023-03-27T03:12:52.737Z,256.00
2023-03-27T03:13:20.699Z,254.00
2023-03-27T03:13:34.693Z,253.00
2023-03-27T03:13:48.692Z,254.00
2023-03-27T03:14:02.687Z,254.00
2023-03-27T03:14:30.649Z,255.00
2023-03-27T03:14:44.670Z,256.00
2023-03-27T03:14:58.653Z,255.00
2023-03-27T03:15:12.659Z,255.00
2023-03-27T03:15:40.645Z,257.00
2023-03-27T03:15:54.626Z,257.00
2023-03-27T03:16:08.705Z,256.00
2023-03-27T03:16:22.754Z,257.00
2023-03-27T03:16:50.748Z,257.00
2023-03-27T03:17:04.762Z,257.00
2023-03-27T03:17:18.752Z,257.00
2023-03-27T03:17:32.798Z,257.00
2023-03-27T03:18:00.819Z,256.00
2023-03-27T03:18:14.821Z,256.00
2023-03-27T03:18:28.819Z,257.00
2023-03-27T03:18:42.807Z,257.00
2023-03-27T03:19:10.797Z,258.00
2023-03-27T03:19:24.774Z,258.00
2023-03-27T03:19:38.762Z,258.00
2023-03-27T03:19:52.767Z,259.00
2023-03-27T03:20:20.873Z,259.00
2023-03-27T03:20:34.852Z,259.00
2023-03-27T03:20:48.845Z,260.00
2023-03-27T03:21:02.829Z,259.00
2023-03-27T03:21:30.783Z,258.00
2023-03-27T03:21:44.779Z,258.00
2023-03-27T03:21:58.766Z,258.00
2023-03-27T03:22:12.760Z,258.00
2023-03-27T03:22:40.721Z,256.00
2023-03-27T03:22:54.698Z,257.00
2023-03-27T03:23:08.683Z,257.00
2023-03-27T03:23:22.684Z,256.00
2023-03-27T03:23:57.928Z,256.00
2023-03-27T03:24:04.444Z,257.00
2023-03-27T03:24:18.427Z,257.00
2023-03-27T03:24:32.424Z,258.00
2023-03-27T03:25:00.399Z,257.00
2023-03-27T03:25:14.422Z,258.00
2023-03-27T03:25:28.421Z,258.00
2023-03-27T03:25:42.436Z,258.00
2023-03-27T03:26:10.403Z,258.00
2023-03-27T03:26:24.402Z,258.00
2023-03-27T03:26:38.397Z,258.00
2023-03-27T03:26:52.412Z,258.00
2023-03-27T03:27:20.405Z,257.00
2023-03-27T03:27:34.392Z,257.00
2023-03-27T03:27:48.393Z,256.00
2023-03-27T03:28:02.384Z,256.00
2023-03-27T03:28:30.337Z,255.00
2023-03-27T03:29:00.292Z,254.00
2023-03-27T03:29:01.394Z,255.00
2023-03-27T03:29:13.160Z,255.00
2023-03-27T03:29:41.129Z,254.00
2023-03-27T03:29:55.116Z,254.00
2023-03-27T03:30:09.130Z,254.00
2023-03-27T03:30:23.120Z,254.00
2023-03-27T03:30:51.102Z,253.00
2023-03-27T03:31:05.188Z,253.00
2023-03-27T03:31:19.248Z,254.00
2023-03-27T03:31:33.250Z,255.00
2023-03-27T03:32:01.194Z,255.00
2023-03-27T03:32:15.241Z,255.00
2023-03-27T03:32:29.254Z,254.00
2023-03-27T03:32:43.269Z,255.00
2023-03-27T03:33:11.245Z,257.00
2023-03-27T03:33:25.231Z,257.00
2023-03-27T03:33:39.216Z,257.00
2023-03-27T03:33:53.233Z,258.00
2023-03-27T03:34:21.176Z,257.00
2023-03-27T03:34:35.161Z,257.00
2023-03-27T03:34:49.166Z,257.00
2023-03-27T03:35:03.154Z,257.00
2023-03-27T03:35:31.197Z,258.00
2023-03-27T03:35:45.254Z,257.00